createdAt,value
2023-04-09T00:04:16.028Z,100908.58
2023-04-09T00:09:19.020Z,100904.98
2023-04-09T00:14:21.591Z,100905.39
2023-04-09T00:19:24.973Z,100904.77
2023-04-09T00:24:27.495Z,100907.81
2023-04-09T00:29:30.073Z,100905.95
2023-04-09T00:34:32.628Z,100908.08
2023-04-09T00:39:35.438Z,100909.67
2023-04-09T00:44:38.078Z,100909.36
2023-04-09T00:49:40.934Z,100908.36
2023-04-09T00:54:43.567Z,100908.42
2023-04-09T00:59:46.377Z,100903.25
2023-04-09T01:04:50.392Z,100901.89
2023-04-09T01:10:17.005Z,100910.05
2023-04-09T01:15:24.944Z,100907.67
2023-04-09T01:20:39.434Z,100907.20
2023-04-09T01:25:56.971Z,100898.91
2023-04-09T01:31:02.697Z,100896.67
2023-04-09T01:36:07.195Z,100896.52
2023-04-09T01:41:14.742Z,100898.44
2023-04-09T01:46:19.326Z,100900.73
2023-04-09T01:51:22.052Z,100907.69
2023-04-09T01:56:24.570Z,100908.21
2023-04-09T02:01:41.590Z,100909.23
2023-04-09T02:06:58.064Z,100909.25
2023-04-09T02:12:05.686Z,100910.27
2023-04-09T02:17:08.339Z,100907.69
2023-04-09T02:22:12.008Z,100903.57
2023-04-09T02:27:14.776Z,100899.98
2023-04-09T02:32:17.412Z,100903.44
2023-04-09T02:37:20.058Z,100904.66
2023-04-09T02:42:22.567Z,100901.39
2023-04-09T02:47:27.144Z,100904.70
2023-04-09T02:52:29.772Z,100900.73
2023-04-09T02:57:33.716Z,100900.88
2023-04-09T03:02:36.473Z,100898.99
2023-04-09T03:07:39.125Z,100895.54
2023-04-09T03:12:44.391Z,100892.27
2023-04-09T03:17:46.953Z,100892.96
2023-04-09T03:22:49.590Z,100893.30
2023-04-09T03:27:52.260Z,100888.46
2023-04-09T03:32:54.880Z,100887.23
2023-04-09T03:37:57.419Z,100892.42
2023-04-09T03:42:59.918Z,100898.46
2023-04-09T03:48:02.542Z,100903.65
2023-04-09T03:53:05.373Z,100906.23
2023-04-09T03:58:07.854Z,100912.63
2023-04-09T04:03:12.371Z,100910.20
2023-04-09T04:08:15.099Z,100906.75
2023-04-09T04:13:17.684Z,100912.28
2023-04-09T04:18:20.176Z,100914.36
2023-04-09T04:23:22.915Z,100916.25
2023-04-09T04:28:25.506Z,100911.57
2023-04-09T04:33:28.114Z,100911.39
2023-04-09T04:38:30.686Z,100913.29
2023-04-09T04:43:33.543Z,100914.14
2023-04-09T04:48:36.164Z,100911.89
2023-04-09T04:53:38.744Z,100910.16
2023-04-09T04:58:42.249Z,100911.36
2023-04-09T05:03:44.919Z,100910.48
2023-04-09T05:08:47.528Z,100912.87
2023-04-09T05:13:50.439Z,100919.42
2023-04-09T05:18:53.180Z,100923.71
2023-04-09T05:23:55.942Z,100922.98
2023-04-09T05:28:58.533Z,100924.96
2023-04-09T05:34:01.169Z,100927.17
2023-04-09T05:39:03.849Z,100931.28
2023-04-09T05:44:06.454Z,100930.20
2023-04-09T05:49:09.095Z,100931.23
2023-04-09T05:54:11.632Z,100926.84
2023-04-09T05:59:14.142Z,100930.42
2023-04-09T06:04:16.913Z,100933.98
2023-04-09T06:09:19.822Z,100936.35
2023-04-09T06:14:22.341Z,100944.23
2023-04-09T06:19:24.924Z,100948.51
2023-04-09T06:24:27.472Z,100946.21
2023-04-09T06:29:30.227Z,100949.77
2023-04-09T06:34:32.734Z,100957.22
2023-04-09T06:39:35.325Z,100958.91
2023-04-09T06:44:37.904Z,100958.94
2023-04-09T06:49:40.444Z,100962.31
2023-04-09T06:54:42.963Z,100966.70
2023-04-09T06:59:45.530Z,100972.83
2023-04-09T07:04:48.158Z,100977.27
2023-04-09T07:09:51.290Z,100974.48
2023-04-09T07:15:00.668Z,100983.04
2023-04-09T07:20:04.073Z,100990.09
2023-04-09T07:25:07.448Z,100997.21
2023-04-09T07:30:10.850Z,100999.99
2023-04-09T07:35:13.417Z,100997.45
2023-04-09T07:40:16.377Z,100987.30
2023-04-09T07:45:19.297Z,100988.98
2023-04-09T07:50:22.080Z,100992.91
2023-04-09T07:55:24.690Z,100994.52
2023-04-09T08:00:27.227Z,100995.83
2023-04-09T08:05:30.751Z,101004.06
2023-04-09T08:10:33.288Z,101001.42
2023-04-09T08:15:36.198Z,101009.21
2023-04-09T08:20:44.784Z,101011.53
2023-04-09T08:25:47.455Z,101014.21
2023-04-09T08:30:50.075Z,101014.30
2023-04-09T08:35:52.619Z,101011.35
2023-04-09T08:40:55.347Z,101008.70
2023-04-09T08:45:59.499Z,101006.42
2023-04-09T08:51:02.356Z,100999.80
2023-04-09T08:56:05.348Z,100996.46
2023-04-09T09:01:21.884Z,100993.84
2023-04-09T09:06:30.099Z,100993.13
2023-04-09T09:11:34.473Z,100999.11
2023-04-09T09:16:42.683Z,100995.05
2023-04-09T09:21:56.674Z,100997.58
2023-04-09T09:26:59.685Z,101003.70
2023-04-09T09:32:02.231Z,101008.43
2023-04-09T09:37:28.202Z,101009.50
2023-04-09T09:42:31.806Z,101011.09
2023-04-09T09:47:34.706Z,101011.36
2023-04-09T09:52:39.313Z,101003.57
2023-04-09T09:57:44.718Z,101004.77
2023-04-09T10:02:56.634Z,101006.08
2023-04-09T10:08:00.424Z,101001.55
2023-04-09T10:13:06.050Z,100997.63
2023-04-09T10:18:08.954Z,100995.83
2023-04-09T10:23:19.598Z,100992.50
2023-04-09T10:28:23.237Z,100994.65
2023-04-09T10:33:28.103Z,101001.08
2023-04-09T10:38:37.521Z,100996.96
2023-04-09T10:43:41.123Z,100991.15
2023-04-09T10:48:44.276Z,100991.98
2023-04-09T10:53:46.798Z,100990.32
2023-04-09T10:58:49.434Z,100994.20
2023-04-09T11:04:10.740Z,100989.73
2023-04-09T11:09:13.559Z,100986.77
2023-04-09T11:14:20.411Z,100988.14
2023-04-09T11:19:23.171Z,100986.01
2023-04-09T11:24:25.701Z,100982.84
2023-04-09T11:29:28.242Z,100983.73
2023-04-09T11:34:33.958Z,100982.74
2023-04-09T11:39:37.291Z,100980.30
2023-04-09T11:44:41.047Z,100979.56
2023-04-09T11:49:46.643Z,100979.30
2023-04-09T11:54:50.221Z,100974.98
2023-04-09T11:59:52.772Z,100970.04
2023-04-09T12:04:55.633Z,100968.09
2023-04-09T12:10:03.889Z,100968.64
2023-04-09T12:15:19.566Z,100968.94
2023-04-09T12:20:35.229Z,100972.14
2023-04-09T12:25:41.025Z,100965.89
2023-04-09T12:30:44.363Z,100961.71
2023-04-09T12:35:47.127Z,100961.54
2023-04-09T12:40:49.741Z,100959.73
2023-04-09T12:45:53.034Z,100951.41
2023-04-09T12:50:55.900Z,100947.35
2023-04-09T12:55:59.227Z,100938.33
2023-04-09T13:01:04.068Z,100935.79
2023-04-09T13:06:06.987Z,100936.01
2023-04-09T13:11:09.611Z,100932.67
2023-04-09T13:16:12.283Z,100928.66
2023-04-09T13:21:18.762Z,100922.01
2023-04-09T13:26:21.620Z,100919.39
2023-04-09T13:31:25.154Z,100915.14
2023-04-09T13:36:27.879Z,100909.27
2023-04-09T13:41:33.976Z,100908.08
2023-04-09T13:46:36.724Z,100907.95
2023-04-09T13:51:39.962Z,100904.47
2023-04-09T13:56:42.498Z,100899.01
2023-04-09T14:01:45.404Z,100897.08
2023-04-09T14:06:47.988Z,100893.48
2023-04-09T14:11:50.955Z,100892.58
2023-04-09T14:16:54.004Z,100892.31
2023-04-09T14:21:56.594Z,100891.71
2023-04-09T14:26:59.467Z,100892.12
2023-04-09T14:32:02.396Z,100883.77
2023-04-09T14:37:05.031Z,100877.23
2023-04-09T14:42:07.622Z,100872.34
2023-04-09T14:47:10.308Z,100869.01
2023-04-09T14:52:12.949Z,100864.95
2023-04-09T14:57:15.542Z,100864.42
2023-04-09T15:02:18.224Z,100865.00
2023-04-09T15:07:22.818Z,100860.00
2023-04-09T15:12:28.281Z,100859.19
2023-04-09T15:17:30.869Z,100860.86
2023-04-09T15:22:33.507Z,100863.30
2023-04-09T15:27:36.120Z,100861.39
2023-04-09T15:32:38.691Z,100871.06
2023-04-09T15:37:41.693Z,100875.77
2023-04-09T15:42:44.437Z,100874.73
2023-04-09T15:47:47.092Z,100877.48
2023-04-09T15:52:49.872Z,100874.67
2023-04-09T15:57:53.022Z,100876.02
2023-04-09T16:02:55.704Z,100879.77
2023-04-09T16:07:59.934Z,100881.23
2023-04-09T16:13:03.487Z,100886.30
2023-04-09T16:18:06.212Z,100894.41
2023-04-09T16:23:08.835Z,100891.11
2023-04-09T16:28:11.601Z,100893.04
2023-04-09T16:33:14.276Z,100899.08
2023-04-09T16:38:17.081Z,100905.75
2023-04-09T16:43:19.678Z,100915.19
2023-04-09T16:48:22.382Z,100921.05
2023-04-09T16:53:25.655Z,100925.73
2023-04-09T16:58:28.945Z,100924.98
2023-04-09T17:03:31.977Z,100921.04
2023-04-09T17:08:35.305Z,100918.81
2023-04-09T17:13:38.117Z,100922.86
2023-04-09T17:18:41.421Z,100931.30
2023-04-09T17:23:44.875Z,100937.92
2023-04-09T17:28:47.643Z,100938.14
2023-04-09T17:33:50.333Z,100937.63
2023-04-09T17:38:53.529Z,100943.87
2023-04-09T17:43:56.218Z,100951.11
2023-04-09T17:48:58.867Z,100958.89
2023-04-09T17:54:01.423Z,100966.60
2023-04-09T17:59:03.984Z,100969.21
2023-04-09T18:04:06.895Z,100975.30
2023-04-09T18:09:10.022Z,100975.87
2023-04-09T18:14:13.143Z,100978.04
2023-04-09T18:19:15.989Z,100986.27
2023-04-09T18:24:18.930Z,100987.67
2023-04-09T18:29:21.834Z,100995.70
2023-04-09T18:34:25.780Z,101003.13
2023-04-09T18:39:30.724Z,101006.86
2023-04-09T18:44:37.505Z,101016.45
2023-04-09T18:49:40.491Z,101018.29
2023-04-09T18:54:43.360Z,101021.59
2023-04-09T18:59:46.591Z,101026.46
2023-04-09T19:04:49.341Z,101027.65
2023-04-09T19:09:52.145Z,101024.23
2023-04-09T19:14:54.820Z,101015.98
2023-04-09T19:19:57.946Z,101009.02
2023-04-09T19:25:01.033Z,101013.09
2023-04-09T19:30:04.485Z,101012.66
2023-04-09T19:35:08.341Z,101004.90
2023-04-09T19:40:11.461Z,101007.51
2023-04-09T19:45:14.037Z,101018.67
2023-04-09T19:50:16.862Z,101023.75
2023-04-09T19:55:19.453Z,101023.39
2023-04-09T20:00:22.198Z,101028.55
2023-04-09T20:05:25.074Z,101025.14
2023-04-09T20:10:27.670Z,101023.70
2023-04-09T20:15:30.194Z,101025.74
2023-04-09T20:20:32.974Z,101027.77
2023-04-09T20:25:36.651Z,101028.11
2023-04-09T20:30:39.268Z,101025.13
2023-04-09T20:35:41.923Z,101022.27
2023-04-09T20:40:44.500Z,101022.19
2023-04-09T20:45:47.442Z,101022.25
2023-04-09T20:50:50.584Z,101030.99
2023-04-09T20:55:54.532Z,101027.23
2023-04-09T21:01:09.114Z,101026.27
2023-04-09T21:06:11.642Z,101023.27
2023-04-09T21:11:14.814Z,101024.91
2023-04-09T21:16:17.600Z,101020.10
2023-04-09T21:21:20.487Z,101023.26
2023-04-09T21:26:24.915Z,101016.91
2023-04-09T21:31:27.507Z,101017.88
2023-04-09T21:36:30.362Z,101016.18
2023-04-09T21:41:32.904Z,101019.86
2023-04-09T21:46:36.945Z,101020.91
2023-04-09T21:51:39.787Z,101018.30
2023-04-09T21:56:42.281Z,101020.78
2023-04-09T22:01:46.922Z,101024.36
2023-04-09T22:06:50.830Z,101021.34
2023-04-09T22:11:53.685Z,101017.91
2023-04-09T22:16:58.174Z,101010.80
2023-04-09T22:22:00.938Z,100998.69
2023-04-09T22:27:03.647Z,101001.70
2023-04-09T22:32:06.234Z,101003.30
2023-04-09T22:37:08.753Z,100999.38
2023-04-09T22:42:12.056Z,101001.17
2023-04-09T22:47:14.605Z,100997.07
2023-04-09T22:52:17.110Z,100989.34
2023-04-09T22:57:19.754Z,100994.77
2023-04-09T23:02:22.384Z,100996.54
2023-04-09T23:07:24.990Z,100996.24
2023-04-09T23:12:27.474Z,100996.64
2023-04-09T23:17:30.321Z,101000.17
2023-04-09T23:22:32.836Z,101002.16
2023-04-09T23:27:35.456Z,100999.61
2023-04-09T23:32:37.949Z,101004.69
2023-04-09T23:37:42.534Z,100998.13
2023-04-09T23:42:45.709Z,100994.15
2023-04-09T23:47:48.265Z,100998.33
2023-04-09T23:52:51.438Z,101002.16
2023-04-09T23:57:53.972Z,101000.98
